RJSF/FKS METAR and TAF weather

Enter ICAO airport designator
Station Type Date Time Source
RJSF METAR 2020/09/23 11:00 UTC NOAA

RJSF 231100Z 36008KT 9999 FEW015 BKN025 BKN035 17/15 Q1017


Station Type Date Time Source
RJSF Decoded METAR 2020/09/23 11:00 UTC NOAA

Fukushima Airport, Japan (RJSF) 37-14N 140-26E 375M
Sep 23, 2020 - 07:00 AM EDT / 2020.09.23 1100 UTC
Wind: from the N (360 degrees) at 9 MPH (8 KT):0
Visibility: greater than 7 mile(s):0
Sky conditions: mostly cloudy
Temperature: 62 F (17 C)
Dew Point: 59 F (15 C)
Relative Humidity: 88%
Pressure (altimeter): 30.03 in. Hg (1017 hPa)
ob: RJSF 231100Z 36008KT 9999 FEW015 BKN025 BKN035 17/15 Q1017
cycle: 11

Station Type Date Time Source
RJSF TAF 2020/09/23 18:30 UTC NOAA

TAF RJSF 231710Z 2318/2500 36013KT 6000 -RA FEW008 BKN015 BKN020
TEMPO 2318/2400 1500 -RA BR FEW001 BKN003 BKN005
TEMPO 2400/2406 3000 RA BR FEW003 BKN005 BKN008

Example: see airport list